Latest Weather Observations for Dum In Mirrie

IDD60801

Issued at 11:31 am CST Tuesday 21 November 2017 (issued every 30 minutes, with the page automatically refreshed every 10 minutes)

About weather observations | Map of weather stations | Latest weather observations for NT | Other Formats
Station Details ID: 014277 Name: DUM IN MIRRIE AIRSTRIP Lat: -12.63 Lon: 130.37 Height: 3.5 m
Data from the previous 72 hours. | See also: Recent months at Dum In Mirrie
Date/Time
CST
Temp
°C
App
Temp
°C
Dew
Point
°C
Rel
Hum
%
Delta-T
°C
Wind Press
QNH
hPa
Press
MSL
hPa
Rain since
9am
mm
Dir  Spd
km/h
Gust
km/h
Spd
kts
Gust
kts
21/11:30am 32.4 37.5 25.0 65 5.2 W 7 13 4 7 1008.2 1008.2 0.0
21/11:00am 32.3 37.4 24.9 65 5.2 W 7 13 4 7 1008.8 1008.8 0.0
21/10:30am 31.4 36.4 24.5 67 4.8 WNW 6 9 3 5 1009.0 1009.0 0.0
21/10:00am 32.0 37.2 24.8 65 5.1 W 6 11 3 6 1009.1 1009.1 0.0
21/09:30am 32.1 37.4 24.9 65 5.1 W 6 11 3 6 1008.9 1008.9 0.0
21/09:00am 31.4 36.1 24.0 65 5.2 WSW 6 9 3 5 1008.8 1008.8 0.0
21/08:30am 31.4 36.6 24.8 68 4.6 W 6 9 3 5 1008.3 1008.3 0.0
21/08:00am 30.7 36.3 24.8 71 4.1 WNW 4 9 2 5 1008.2 1008.2 0.0
21/07:30am 30.3 35.8 24.7 72 3.9 WNW 4 7 2 4 1007.7 1007.7 0.0
21/07:00am 29.6 35.5 25.4 78 3.0 WNW 4 9 2 5 1007.2 1007.2 0.0
21/06:30am 28.8 34.5 25.0 80 2.7 NW 4 9 2 5 1006.7 1006.7 0.0
21/06:00am 28.6 34.7 25.0 81 2.5 NW 2 6 1 3 1006.4 1006.4 0.0
21/05:30am 28.5 33.9 24.5 79 2.8 NNW 4 7 2 4 1005.9 1005.9 0.0
21/05:00am 28.7 33.7 24.5 78 2.9 NNW 6 9 3 5 1005.8 1005.8 0.0
21/04:30am 28.8 33.9 24.6 78 2.9 NNW 6 9 3 5 1005.7 1005.7 0.0
21/04:00am 28.8 34.4 24.8 79 2.8 NNW 4 9 2 5 1005.6 1005.6 0.0
21/03:30am 28.9 34.3 24.5 77 3.1 NNW 4 9 2 5 1005.9 1005.9 0.0
21/03:00am 29.0 34.5 24.6 77 3.1 NNW 4 13 2 7 1006.2 1006.2 0.0
21/02:30am 29.1 34.2 24.7 77 3.1 NNW 6 9 3 5 1006.7 1006.7 0.0
21/02:00am 29.2 34.0 24.5 76 3.3 NNW 7 13 4 7 1007.1 1007.1 0.0
21/01:30am 29.1 34.0 24.7 77 3.1 NNW 7 11 4 6 1007.4 1007.4 0.0
21/01:00am 29.0 34.1 25.0 79 2.8 NNW 7 13 4 7 1007.7 1007.7 0.0
21/12:30am 29.1 34.4 25.3 80 2.7 NNW 7 11 4 6 1008.2 1008.2 0.0
21/12:00am 29.2 34.5 25.2 79 2.8 NNW 7 15 4 8 1008.3 1008.3 0.0
 
Date/Time
CST
Temp
°C
App
Temp
°C
Dew
Point
°C
Rel
Hum
%
Delta-T
°C
Wind Press
QNH
hPa
Press
MSL
hPa
Rain since
9am
mm
Dir  Spd
km/h
Gust
km/h
Spd
kts
Gust
kts
20/11:30pm 29.4 34.5 25.6 80 2.7 NNW 9 19 5 10 1008.5 1008.5 0.0
20/11:00pm 29.5 34.7 25.7 80 2.7 N 9 19 5 10 1008.5 1008.5 0.0
20/10:30pm 29.4 34.8 25.4 79 2.8 N 7 13 4 7 1008.2 1008.2 0.0
20/10:00pm 29.5 35.1 25.7 80 2.7 N 7 20 4 11 1007.8 1007.8 0.0
20/09:30pm 29.8 35.3 25.3 77 3.2 N 6 9 3 5 1007.9 1007.9 0.0
20/09:00pm 30.0 34.7 24.9 74 3.6 N 9 15 5 8 1007.5 1007.5 0.0
20/08:30pm 30.0 34.8 24.4 72 3.9 N 7 13 4 7 1007.0 1007.0 0.0
20/08:00pm 29.9 34.3 23.8 70 4.2 N 7 11 4 6 1006.7 1006.7 0.0
20/07:30pm 29.9 34.7 24.1 71 4.0 N 6 13 3 7 1006.8 1006.8 0.0
20/07:00pm 29.9 34.7 24.1 71 4.0 N 6 9 3 5 1006.3 1006.3 0.0
20/06:30pm 30.2 35.3 24.1 70 4.2 N 4 7 2 4 1006.0 1006.0 0.0
20/06:00pm 31.0 36.1 24.6 68 4.5 N 6 11 3 6 1005.8 1005.8 0.0
20/05:30pm 31.3 36.0 24.9 69 4.5 N 9 17 5 9 1005.6 1005.6 0.0
20/05:00pm 31.4 36.4 24.8 68 4.6 NNW 7 15 4 8 1005.2 1005.2 0.0
20/04:30pm 31.8 36.8 25.4 69 4.5 NNW 9 17 5 9 1005.4 1005.4 0.0
20/04:00pm 31.7 35.9 24.8 67 4.9 NNW 11 19 6 10 1005.7 1005.7 0.0
20/03:30pm 32.4 37.1 25.0 65 5.2 NW 9 15 5 8 1005.9 1005.9 0.0
20/03:00pm 32.7 37.6 25.2 64 5.3 NNW 9 17 5 9 1006.2 1006.2 0.0
20/02:30pm 32.7 37.6 25.2 64 5.3 WNW 9 15 5 8 1006.4 1006.4 0.0
20/02:00pm 32.7 37.6 25.2 64 5.3 WNW 9 15 5 8 1006.7 1006.7 0.0
20/01:30pm 32.6 37.7 24.9 64 5.4 NW 7 13 4 7 1007.1 1007.1 0.0
20/01:00pm 32.9 38.3 25.4 64 5.3 NW 7 13 4 7 1007.5 1007.5 0.0
20/12:30pm 31.5 36.7 25.1 69 4.5 WNW 7 11 4 6 1008.1 1008.1 0.0
20/12:00pm 32.8 38.6 25.1 64 5.5 NE 4 7 2 4 1008.5 1008.5 0.0
20/11:30am 32.8 38.6 25.1 64 5.5 SW 4 9 2 5 1008.6 1008.6 0.0
20/11:00am 31.6 37.1 24.7 67 4.8 SE 4 7 2 4 1008.9 1008.9 0.0
20/10:30am 31.1 36.4 25.0 70 4.3 SSE 6 13 3 7 1009.2 1009.2 0.0
20/10:00am 30.5 35.2 23.9 68 4.6 SSE 6 13 3 7 1009.3 1009.3 0.0
20/09:30am 30.2 35.0 24.4 71 4.1 ESE 7 11 4 6 1009.2 1009.2 0.0
20/09:00am 28.6 33.7 24.6 79 2.8 SE 6 9 3 5 1009.4 1009.4 0.0
20/08:30am 28.3 33.1 24.5 80 2.6 ESE 7 11 4 6 1009.4 1009.4 0.0
20/08:00am 27.4 32.4 24.8 86 1.8 ESE 7 11 4 6 1009.5 1009.5 0.0
20/07:30am 26.1 31.7 24.9 93 0.8 ESE 4 7 2 4 1009.2 1009.2 0.0
20/07:00am 25.5 30.5 24.5 94 0.7 SE 6 11 3 6 1009.0 1009.0 0.0
20/06:30am 25.3 30.8 24.6 96 0.5 SE 4 9 2 5 1008.8 1008.8 0.0
20/06:00am 25.4 30.7 24.9 97 0.3 SE 6 11 3 6 1008.3 1008.3 0.0
20/05:30am 25.5 31.8 25.3 99 0.1 SE 2 6 1 3 1007.7 1007.7 0.0
20/05:00am 25.2 30.8 24.9 98 0.2 E 4 6 2 3 1007.2 1007.2 0.0
20/04:30am 25.0 30.5 24.7 98 0.2 ENE 4 6 2 3 1006.8 1006.8 0.0
20/04:00am 24.9 30.0 24.6 98 0.2 ENE 6 6 3 3 1007.1 1007.1 0.0
20/03:30am 24.7 30.8 24.4 98 0.2 CALM 0 0 0 0 1007.2 1007.2 0.0
20/03:00am 24.7 30.8 24.4 98 0.2 CALM 0 0 0 0 1007.5 1007.5 0.0
20/02:30am 24.6 30.6 24.3 98 0.2 CALM 0 2 0 1 1007.7 1007.7 0.0
20/02:00am 24.6 29.5 24.3 98 0.2 ESE 6 9 3 5 1007.9 1007.9 0.0
20/01:30am 24.6 29.5 24.3 98 0.2 NNE 6 9 3 5 1008.1 1008.1 0.0
20/01:00am 24.0 28.0 23.7 98 0.2 NE 9 15 5 8 1009.0 1009.0 0.0
20/12:30am 23.5 26.6 22.8 96 0.5 NNE 11 20 6 11 1009.5 1009.5 0.0
20/12:00am 24.1 25.1 22.9 93 0.8 ENE 22 35 12 19 1010.8 1010.8 0.0
 
Date/Time
CST
Temp
°C
App
Temp
°C
Dew
Point
°C
Rel
Hum
%
Delta-T
°C
Wind Press
QNH
hPa
Press
MSL
hPa
Rain since
9am
mm
Dir  Spd
km/h
Gust
km/h
Spd
kts
Gust
kts
19/11:30pm 26.5 31.7 25.1 92 1.0 ESE 7 13 4 7 1010.5 1010.5 0.0
19/11:00pm 26.6 31.8 24.8 90 1.3 SE 6 9 3 5 1009.9 1009.9 0.0
19/10:30pm 27.1 32.6 24.6 86 1.7 ESE 4 9 2 5 1009.1 1009.1 0.0
19/10:00pm 28.3 32.2 24.3 79 2.8 E 11 19 6 10 1009.7 1009.7 0.0
19/09:30pm 29.8 35.8 24.9 75 3.4 NW 2 6 1 3 1009.2 1009.2 0.0
19/09:00pm 29.8 35.6 25.1 76 3.3 NW 4 6 2 3 1009.0 1009.0 0.0
19/08:30pm 29.7 35.5 25.2 77 3.2 NW 4 7 2 4 1008.4 1008.4 0.0
19/08:00pm 29.8 35.3 25.3 77 3.2 NW 6 9 3 5 1007.6 1007.6 0.0
19/07:30pm 29.7 35.3 25.4 78 3.0 NW 6 11 3 6 1007.1 1007.1 0.0
19/07:00pm 29.8 35.4 25.5 78 3.0 NW 6 13 3 7 1006.8 1006.8 0.0
19/06:30pm 29.8 35.6 26.0 80 2.7 NW 7 17 4 9 1006.5 1006.5 0.0
19/06:00pm 30.1 35.6 26.1 79 2.9 NW 9 19 5 10 1005.9 1005.9 0.0
19/05:30pm 29.6 35.5 24.7 75 3.4 W 2 6 1 3 1005.6 1005.6 0.0
19/05:00pm 29.4 33.8 23.8 72 3.9 SW 7 15 4 8 1006.3 1006.3 0.0
19/04:30pm 31.4 36.5 24.0 65 5.2 NNW 4 9 2 5 1006.3 1006.3 0.0
19/04:00pm 31.9 35.2 23.2 60 6.0 NNE 11 24 6 13 1006.6 1006.6 0.0
19/03:30pm 33.2 36.6 24.1 59 6.4 N 13 24 7 13 1006.2 1006.2 0.0
19/03:00pm 32.0 35.6 23.8 62 5.7 N 11 19 6 10 1006.4 1006.4 0.0
19/02:30pm 33.2 36.7 24.9 61 5.9 N 15 22 8 12 1006.5 1006.5 0.0
19/02:00pm 33.1 37.1 25.1 63 5.7 N 13 20 7 11 1006.9 1006.9 0.0
19/01:30pm 33.2 36.4 24.4 60 6.2 N 15 26 8 14 1007.4 1007.4 0.0
19/01:00pm 32.5 36.5 25.1 65 5.2 N 13 19 7 10 1008.0 1008.0 0.0
19/12:30pm 33.0 37.6 25.3 64 5.5 N 11 17 6 9 1008.2 1008.2 0.0
19/12:00pm 31.5 36.2 24.9 68 4.7 N 9 19 5 10 1008.7 1008.7 0.0
19/11:30am 31.7 36.6 25.3 69 4.5 N 9 15 5 8 1008.7 1008.7 0.0
19/11:00am 31.5 35.8 24.9 68 4.6 N 11 17 6 9 1008.9 1008.9 0.0
19/10:30am 32.6 36.4 24.1 61 5.9 ENE 11 20 6 11 1009.1 1009.1 0.0
19/10:00am 31.7 36.5 25.1 68 4.7 ENE 9 17 5 9 1009.3 1009.3 0.0
19/09:30am 31.6 37.0 25.5 70 4.3 ENE 7 13 4 7 1009.3 1009.3 0.0
19/09:00am 31.1 36.2 25.0 70 4.3 NE 7 15 4 8 1009.0 1009.0 0.0
19/08:30am 31.0 36.5 25.6 73 3.8 E 7 13 4 7 1008.9 1008.9 0.0
19/08:00am 29.7 35.1 25.2 77 3.2 E 6 9 3 5 1008.8 1008.8 0.0
19/07:30am 28.9 34.4 25.3 81 2.5 ESE 6 9 3 5 1008.5 1008.5 0.0
19/07:00am 27.9 33.5 24.9 84 2.1 E 4 6 2 3 1008.0 1008.0 0.0
19/06:30am 26.7 32.5 25.1 91 1.1 E 4 4 2 2 1007.6 1007.6 0.0
19/06:00am 26.6 32.6 24.8 90 1.3 ESE 2 4 1 2 1007.3 1007.3 0.0
19/05:30am 26.7 32.1 24.5 88 1.5 E 4 6 2 3 1007.2 1007.2 0.0
19/05:00am 26.6 31.9 24.3 87 1.6 SE 4 6 2 3 1007.2 1007.2 0.0
19/04:30am 26.8 31.7 24.3 86 1.7 ESE 6 7 3 4 1007.0 1007.0 0.0
19/04:00am 26.9 32.2 24.4 86 1.7 ESE 4 7 2 4 1007.0 1007.0 0.0
19/03:30am 27.3 32.8 24.7 86 1.8 SE 4 7 2 4 1007.1 1007.1 0.0
19/03:00am 28.1 34.2 25.1 84 2.1 ESE 2 7 1 4 1007.2 1007.2 0.0
19/02:30am 28.1 33.6 24.7 82 2.4 NE 4 7 2 4 1007.3 1007.3 0.0
19/02:00am 28.4 34.4 24.8 81 2.5 NE 2 6 1 3 1007.6 1007.6 0.0
19/01:30am 28.5 34.1 24.9 81 2.5 NE 4 6 2 3 1007.9 1007.9 0.0
19/01:00am 28.3 33.8 24.7 81 2.5 NE 4 7 2 4 1008.2 1008.2 0.0
19/12:30am 28.3 34.7 24.9 82 2.4 CALM 0 2 0 1 1008.8 1008.8 0.0
19/12:00am 28.3 33.8 24.7 81 2.5 ENE 4 6 2 3 1008.8 1008.8 0.0
 
Date/Time
CST
Temp
°C
App
Temp
°C
Dew
Point
°C
Rel
Hum
%
Delta-T
°C
Wind Press
QNH
hPa
Press
MSL
hPa
Rain since
9am
mm
Dir  Spd
km/h
Gust
km/h
Spd
kts
Gust
kts
18/11:30pm 28.0 33.6 24.8 83 2.2 NNE 4 7 2 4 1008.7 1008.7 0.0
18/11:00pm 27.9 33.4 24.7 83 2.2 NE 4 6 2 3 1008.5 1008.5 0.0
18/10:30pm 27.8 33.9 25.0 85 2.0 NNE 2 4 1 2 1008.4 1008.4 0.0
18/10:00pm 28.0 33.2 24.8 83 2.2 NE 6 9 3 5 1008.1 1008.1 0.0
18/09:30pm 28.3 33.4 24.9 82 2.4 NE 7 13 4 7 1007.7 1007.7 0.0
18/09:00pm 28.9 33.3 24.5 77 3.1 NE 9 19 5 10 1007.6 1007.6 0.0
18/08:30pm 29.8 34.0 24.7 74 3.6 N 11 19 6 10 1007.3 1007.3 0.0
18/08:00pm 29.9 33.6 24.5 73 3.8 N 13 22 7 12 1007.1 1007.1 0.0
18/07:30pm 29.9 34.3 25.0 75 3.4 NNE 11 20 6 11 1006.3 1006.3 0.0
18/07:00pm 30.0 34.6 25.3 76 3.3 N 11 20 6 11 1006.4 1006.4 0.0
18/06:30pm 31.3 33.3 22.9 61 5.8 NE 17 32 9 17 1006.0 1006.0 0.0
18/06:00pm 31.6 34.0 22.9 60 6.0 NNE 15 30 8 16 1005.6 1005.6 0.0
18/05:30pm 31.7 34.6 23.2 60 5.9 NNE 13 32 7 17 1005.1 1005.1 0.0
18/05:00pm 32.1 34.6 23.1 59 6.2 NNE 15 24 8 13 1005.0 1005.0 0.0
18/04:30pm 32.2 35.6 24.0 62 5.7 NNE 13 28 7 15 1005.1 1005.1 0.0
18/04:00pm 32.5 35.9 24.0 61 5.9 NE 13 24 7 13 1005.2 1005.2 0.0
18/03:30pm 32.2 36.4 25.3 67 4.9 NNE 13 26 7 14 1005.4 1005.4 0.0
18/03:00pm 33.1 37.8 26.1 66 5.0 N 13 22 7 12 1005.7 1005.7 0.0
18/02:30pm 30.8 35.5 26.1 76 3.4 N 13 24 7 13 1005.9 1005.9 0.0
18/02:00pm 32.6 37.1 25.2 65 5.2 N 11 20 6 11 1006.2 1006.2 0.0
18/01:30pm 33.9 38.1 25.3 60 6.1 N 13 22 7 12 1006.7 1006.7 0.0
18/01:00pm 33.2 37.2 24.4 60 6.2 N 11 24 6 13 1007.1 1007.1 0.0
18/12:30pm 33.5 37.0 22.9 53 7.3 NE 9 13 5 7 1007.7 1007.7 0.0
18/12:00pm 33.2 36.5 23.2 55 6.9 ENE 11 22 6 12 1008.1 1008.1 0.0

Other Formats:

Comma delimited format used in spreadsheet applications
http://www.bom.gov.au/fwo/IDD60801/IDD60801.94116.axf

JavaScript Object Notation format (JSON) in row-major order
http://www.bom.gov.au/fwo/IDD60801/IDD60801.94116.json